Tindouf Airport

DAOF · Tindouf, 阿尔及利亚

TAF DAOF · Tindouf Airport

16 七月 15:00 LT
1h
2024年7月16日 16:002024年7月17日 01:00有效
时间
星期二
16:00
星期二
17:00
星期二
18:00
星期二
19:00
星期二
20:00
星期二
21:00
星期二
22:00
星期二
23:00
星期三
00:00
代码
VFR
VFR
VFR
VFR
VFR
VFR
VFR
VFR
VFR
天气
天空晴朗
天空晴朗
天空晴朗
天空晴朗
天空晴朗
天空晴朗
天空晴朗
天空晴朗
天空晴朗
能见度
8 km
8 km
8 km
8 km
8 km
8 km
8 km
8 km
8 km
天花板
-
-
-
-
-
-
-
-
-
100°
100°
100°
100°
100°
100°
100°
100°
100°
100°
100°
100°
100°
100°
100°
100°
100°
100°
速度
6 kt
6 kt
6 kt
6 kt
6 kt
6 kt
6 kt
6 kt
6 kt
阵风
温度/星期日
20:30

原版的

TAF DAOF 161400Z 1615/1624 10006KT 8000 NSC

TAF Tindouf Airport

Tindouf Airport是,阿尔及利亚中的中型机场。 该机场位于纬度27,70040和经度-8,16710。 该机场有2条跑道: 8/26 和 8R/26L. 本场的ICAO机场代码为DAOF。 该机场的IATA代码为TIN。 机场在Alger FIR中。

该航空气象观测是针对Tindouf Airport在2024年7月16日 15:00, 当地时间进行的。 从2024年7月16日 16:00到2024年7月17日 01:00, 当地时间有效.

预报

  • 在星期二 16:00和星期三 01:00之间

    • 风: 风来自100°方向,速度为6 kt。
    • 能见度: 8 km
    • 乌云: 没有观察到明显的云.

白天

今天,太阳从06:47升起,在20:30降落。 这适用于Tindouf Airport,世界夏令时可能有所不同。 当地时间与世界标准时间之间的时差为+1 小时。 夏令时目前正在进行中。

报告变更